createdAt,value
2018-02-08T00:00:02.693Z,42.65
2018-02-08T00:00:25.935Z,44.33
2018-02-08T00:00:49.738Z,43.65
2018-02-08T00:01:13.844Z,44.92
2018-02-08T00:01:37.644Z,45.03
2018-02-08T00:02:01.662Z,45.60
2018-02-08T00:02:25.458Z,44.03
2018-02-08T00:02:49.504Z,44.58
2018-02-08T00:03:13.337Z,43.67
2018-02-08T00:03:37.366Z,43.90
2018-02-08T00:04:01.428Z,42.85
2018-02-08T00:04:25.175Z,44.38
2018-02-08T00:04:49.221Z,44.55
2018-02-08T00:05:13.124Z,45.12
2018-02-08T00:05:37.184Z,44.55
2018-02-08T00:06:00.990Z,45.55
2018-02-08T00:06:25.033Z,45.45
2018-02-08T00:06:48.773Z,44.15
2018-02-08T00:07:12.299Z,45.05
2018-02-08T00:07:36.070Z,46.78
2018-02-08T00:07:59.821Z,48.25
2018-02-08T00:08:23.616Z,46.53
2018-02-08T00:08:47.640Z,43.75
2018-02-08T00:09:11.395Z,44.78
2018-02-08T00:09:35.469Z,45.15
2018-02-08T00:09:59.241Z,45.10
2018-02-08T00:10:22.708Z,45.60
2018-02-08T00:10:46.468Z,43.47
2018-02-08T00:11:10.213Z,42.38
2018-02-08T00:11:33.662Z,45.33
2018-02-08T00:11:57.417Z,46.53
2018-02-08T00:12:21.159Z,48.40
2018-02-08T00:12:44.921Z,47.65
2018-02-08T00:13:08.929Z,45.40
2018-02-08T00:13:32.722Z,44.53
2018-02-08T00:13:56.268Z,44.85
2018-02-08T00:14:20.046Z,44.35
2018-02-08T00:14:43.788Z,44.95
2018-02-08T00:15:07.573Z,44.58
2018-02-08T00:15:31.442Z,43.85
2018-02-08T00:15:55.505Z,44.15
2018-02-08T00:16:19.385Z,46.15
2018-02-08T00:16:43.465Z,45.05
2018-02-08T00:17:07.252Z,45.67
2018-02-08T00:17:31.288Z,43.05
2018-02-08T00:17:55.034Z,44.53
2018-02-08T00:18:18.509Z,44.53
2018-02-08T00:18:42.251Z,46.22
2018-02-08T00:19:06.007Z,49.88
2018-02-08T00:19:29.818Z,50.00
2018-02-08T00:19:53.922Z,48.65
2018-02-08T00:20:17.681Z,49.30
2018-02-08T00:20:41.794Z,47.62
2018-02-08T00:21:05.599Z,47.03
2018-02-08T00:21:29.679Z,45.05
2018-02-08T00:21:53.450Z,45.97
2018-02-08T00:22:28.482Z,46.72
2018-02-08T00:22:52.296Z,44.53
2018-02-08T00:23:16.332Z,44.47
2018-02-08T00:23:40.097Z,45.42
2018-02-08T00:24:03.601Z,46.10
2018-02-08T00:24:27.392Z,45.20
2018-02-08T00:24:51.203Z,45.58
2018-02-08T00:25:14.986Z,45.72
2018-02-08T00:25:38.998Z,45.97
2018-02-08T00:26:02.837Z,46.13
2018-02-08T00:26:26.917Z,48.40
2018-02-08T00:26:50.807Z,48.72
2018-02-08T00:27:14.578Z,51.10
2018-02-08T00:27:38.089Z,50.40
2018-02-08T00:28:01.835Z,52.50
2018-02-08T00:28:25.592Z,47.22
2018-02-08T00:28:49.385Z,44.90
2018-02-08T00:29:13.408Z,44.53
2018-02-08T00:29:37.231Z,44.28
2018-02-08T00:30:01.283Z,41.17
2018-02-08T00:30:25.080Z,42.03
2018-02-08T00:30:49.173Z,44.08
2018-02-08T00:31:13.013Z,45.45
2018-02-08T00:31:37.041Z,47.53
2018-02-08T00:32:00.876Z,49.25
2018-02-08T00:32:25.059Z,50.00
2018-02-08T00:32:48.814Z,52.95
2018-02-08T00:33:12.834Z,50.75
2018-02-08T00:33:36.657Z,46.05
2018-02-08T00:34:00.809Z,44.03
2018-02-08T00:34:24.592Z,46.10
2018-02-08T00:34:48.387Z,49.55
2018-02-08T00:35:12.493Z,47.15
2018-02-08T00:35:36.274Z,46.37
2018-02-08T00:35:59.759Z,47.53
2018-02-08T00:36:23.561Z,51.30
2018-02-08T00:36:47.380Z,51.50
2018-02-08T00:37:11.124Z,50.70
2018-02-08T00:37:35.072Z,45.42
2018-02-08T00:37:58.544Z,44.93
2018-02-08T00:38:22.385Z,48.10
2018-02-08T00:38:46.348Z,49.63
2018-02-08T00:39:10.236Z,47.40
2018-02-08T00:39:33.974Z,46.83
2018-02-08T00:39:57.730Z,48.20
2018-02-08T00:40:21.499Z,47.03
2018-02-08T00:40:45.061Z,45.47
2018-02-08T00:41:08.822Z,46.72
2018-02-08T00:41:32.584Z,49.15
2018-02-08T00:41:56.335Z,49.95
2018-02-08T00:42:20.389Z,46.72
2018-02-08T00:42:44.167Z,46.25
2018-02-08T00:43:07.649Z,49.85
2018-02-08T00:43:31.459Z,50.85
2018-02-08T00:43:55.273Z,48.95
2018-02-08T00:44:19.139Z,51.15
2018-02-08T00:44:42.880Z,52.83
2018-02-08T00:45:06.942Z,50.80
2018-02-08T00:45:30.711Z,50.63
2018-02-08T00:45:54.800Z,49.45
2018-02-08T00:46:18.458Z,55.83
2018-02-08T00:46:42.240Z,55.67
2018-02-08T00:47:05.659Z,57.75
2018-02-08T00:47:29.420Z,49.75
2018-02-08T00:47:52.897Z,49.00
2018-02-08T00:48:16.642Z,49.33
2018-02-08T00:48:40.431Z,47.60
2018-02-08T00:49:04.249Z,48.92
2018-02-08T00:49:28.339Z,49.95
2018-02-08T00:49:52.135Z,48.78
2018-02-08T00:50:16.032Z,50.63
2018-02-08T00:50:40.060Z,51.53
2018-02-08T00:51:04.145Z,49.55
2018-02-08T00:51:28.024Z,46.92
2018-02-08T00:51:51.809Z,50.00
2018-02-08T00:52:15.832Z,46.80
2018-02-08T00:52:39.866Z,45.17
2018-02-08T00:53:03.715Z,46.17
2018-02-08T00:53:27.755Z,49.47
2018-02-08T00:53:51.617Z,52.13
2018-02-08T00:54:15.094Z,52.83
2018-02-08T00:54:38.954Z,52.08
2018-02-08T00:55:02.717Z,50.83
2018-02-08T00:55:26.459Z,45.78
2018-02-08T00:55:50.217Z,46.47
2018-02-08T00:56:14.316Z,48.95
2018-02-08T00:56:38.132Z,46.55
2018-02-08T00:57:02.244Z,45.58
2018-02-08T00:57:25.996Z,47.97
2018-02-08T00:57:50.124Z,49.92
2018-02-08T00:58:13.986Z,51.58
2018-02-08T00:58:37.832Z,52.97
2018-02-08T00:59:01.858Z,52.72
2018-02-08T00:59:25.942Z,50.47
2018-02-08T00:59:49.683Z,50.45
2018-02-08T01:00:13.702Z,51.65
2018-02-08T01:00:37.486Z,53.20
2018-02-08T01:01:01.563Z,52.17
2018-02-08T01:01:25.674Z,52.80
2018-02-08T01:01:49.521Z,54.55
2018-02-08T01:02:13.341Z,53.45
2018-02-08T01:02:37.386Z,50.35
2018-02-08T01:03:01.169Z,50.47
2018-02-08T01:03:25.302Z,50.70
2018-02-08T01:03:49.096Z,47.05
2018-02-08T01:04:13.130Z,47.25
2018-02-08T01:04:36.996Z,48.67
2018-02-08T01:05:01.030Z,49.80
2018-02-08T01:05:24.870Z,46.67
2018-02-08T01:05:48.884Z,46.67
2018-02-08T01:06:12.347Z,51.53
2018-02-08T01:06:36.092Z,53.33
2018-02-08T01:06:59.876Z,50.80
2018-02-08T01:07:23.791Z,52.67
2018-02-08T01:07:47.546Z,52.45
2018-02-08T01:08:11.582Z,48.75
2018-02-08T01:08:35.375Z,46.83
2018-02-08T01:08:59.393Z,46.00
2018-02-08T01:09:22.884Z,47.30
2018-02-08T01:09:46.640Z,47.25
2018-02-08T01:10:10.583Z,47.10
2018-02-08T01:10:34.378Z,48.85
2018-02-08T01:10:58.195Z,49.08
2018-02-08T01:11:21.939Z,51.08
2018-02-08T01:11:45.397Z,50.92
2018-02-08T01:12:09.150Z,50.08
2018-02-08T01:12:32.928Z,46.70
2018-02-08T01:12:56.666Z,44.83
2018-02-08T01:13:20.149Z,44.78
2018-02-08T01:13:43.980Z,46.97
2018-02-08T01:14:07.777Z,47.60
2018-02-08T01:14:31.573Z,48.03
2018-02-08T01:14:55.616Z,47.75
2018-02-08T01:15:19.373Z,48.08
2018-02-08T01:15:42.868Z,47.83
2018-02-08T01:16:06.637Z,48.00
2018-02-08T01:16:30.425Z,47.83
2018-02-08T01:16:54.261Z,49.92
2018-02-08T01:17:18.282Z,50.50
2018-02-08T01:17:42.073Z,50.72
2018-02-08T01:18:06.160Z,49.42
2018-02-08T01:18:29.991Z,46.45
2018-02-08T01:18:54.045Z,47.58
2018-02-08T01:19:17.820Z,46.15
2018-02-08T01:19:41.289Z,49.47
2018-02-08T01:20:05.041Z,50.53
2018-02-08T01:20:28.803Z,51.55
2018-02-08T01:20:52.655Z,47.90
2018-02-08T01:21:16.683Z,46.88
2018-02-08T01:21:40.492Z,46.53
2018-02-08T01:22:04.537Z,45.53
2018-02-08T01:22:28.281Z,46.67
2018-02-08T01:22:51.771Z,48.97
2018-02-08T01:23:15.529Z,49.90
2018-02-08T01:23:39.396Z,49.03
2018-02-08T01:24:03.165Z,46.65
2018-02-08T01:24:27.258Z,45.17
2018-02-08T01:24:51.052Z,43.95
2018-02-08T01:25:15.087Z,45.70
2018-02-08T01:25:38.834Z,44.72
2018-02-08T01:26:02.330Z,47.00
2018-02-08T01:26:26.079Z,51.95
2018-02-08T01:26:49.832Z,53.25
2018-02-08T01:27:13.632Z,48.97
2018-02-08T01:27:37.178Z,48.65
2018-02-08T01:28:00.970Z,48.47
2018-02-08T01:28:24.760Z,49.08
2018-02-08T01:28:48.541Z,47.13
2018-02-08T01:29:12.576Z,48.67
2018-02-08T01:29:36.377Z,48.78
2018-02-08T01:30:00.403Z,51.47
2018-02-08T01:30:23.885Z,47.77
2018-02-08T01:30:47.642Z,46.80
2018-02-08T01:31:11.406Z,47.78
2018-02-08T01:31:35.157Z,49.42
2018-02-08T01:31:59.172Z,47.70
2018-02-08T01:32:22.919Z,50.12
2018-02-08T01:32:46.373Z,49.25
2018-02-08T01:33:10.145Z,48.15
2018-02-08T01:33:33.898Z,46.78
2018-02-08T01:33:57.343Z,47.93
2018-02-08T01:34:21.113Z,49.30
2018-02-08T01:34:44.915Z,50.22
2018-02-08T01:35:08.670Z,49.58
2018-02-08T01:35:32.517Z,49.35
2018-02-08T01:35:56.555Z,49.75
2018-02-08T01:36:20.061Z,48.73
2018-02-08T01:36:43.802Z,49.90
2018-02-08T01:37:07.664Z,50.92
2018-02-08T01:37:31.402Z,52.08
2018-02-08T01:37:55.157Z,53.30
2018-02-08T01:38:19.250Z,51.58
2018-02-08T01:38:42.996Z,51.22
2018-02-08T01:39:06.474Z,52.25
2018-02-08T01:39:30.334Z,53.10
2018-02-08T01:39:54.131Z,50.60
2018-02-08T01:40:17.880Z,53.38
2018-02-08T01:40:41.926Z,51.92
2018-02-08T01:41:05.690Z,50.00
2018-02-08T01:41:29.792Z,46.92
2018-02-08T01:41:53.570Z,46.83
2018-02-08T01:42:17.034Z,45.80
2018-02-08T01:42:40.821Z,46.60
2018-02-08T01:43:04.578Z,46.85
2018-02-08T01:43:28.383Z,50.88
2018-02-08T01:43:52.402Z,50.65
2018-02-08T01:44:16.153Z,51.05
2018-02-08T01:44:39.596Z,52.05
2018-02-08T01:45:03.404Z,53.67
2018-02-08T01:45:27.161Z,51.33
2018-02-08T01:45:50.364Z,49.73
2018-02-08T01:46:14.200Z,47.67
2018-02-08T01:46:37.974Z,47.65
2018-02-08T01:47:01.997Z,50.28
2018-02-08T01:47:25.744Z,51.75
2018-02-08T01:47:49.238Z,53.87
2018-02-08T01:48:13.013Z,51.53
2018-02-08T01:48:36.798Z,51.72
2018-02-08T01:49:00.565Z,49.72
2018-02-08T01:49:47.102Z,53.42
2018-02-08T01:50:10.846Z,53.60
2018-02-08T01:50:34.656Z,49.63
2018-02-08T01:50:58.416Z,48.00
2018-02-08T01:51:22.176Z,46.08
2018-02-08T01:51:45.730Z,47.67
2018-02-08T01:52:09.496Z,47.55
2018-02-08T01:52:33.257Z,50.88
2018-02-08T01:52:57.101Z,50.20
2018-02-08T01:53:20.900Z,50.67
2018-02-08T01:53:44.433Z,52.05
2018-02-08T01:54:08.228Z,54.22
2018-02-08T01:54:31.980Z,56.80
2018-02-08T01:54:55.741Z,57.45
2018-02-08T01:55:19.761Z,54.25
2018-02-08T01:55:43.581Z,53.90
2018-02-08T01:56:07.039Z,52.38
2018-02-08T01:56:30.898Z,51.78
2018-02-08T01:56:54.624Z,48.70
2018-02-08T01:57:18.512Z,46.58
2018-02-08T01:57:42.285Z,46.78
2018-02-08T01:58:06.372Z,47.67
2018-02-08T01:58:30.212Z,50.28
2018-02-08T01:58:54.296Z,51.72
2018-02-08T01:59:18.052Z,52.55
2018-02-08T01:59:42.137Z,49.03
2018-02-08T02:00:05.960Z,48.20
2018-02-08T02:00:30.117Z,51.53
2018-02-08T02:00:53.889Z,52.13
2018-02-08T02:01:17.965Z,51.53
2018-02-08T02:01:41.709Z,50.80
2018-02-08T02:02:05.211Z,50.63
2018-02-08T02:02:28.944Z,50.03
2018-02-08T02:02:52.785Z,51.67
2018-02-08T02:03:16.534Z,51.20
2018-02-08T02:03:40.685Z,50.38
2018-02-08T02:04:04.458Z,49.50
2018-02-08T02:04:28.528Z,50.20
2018-02-08T02:04:52.287Z,50.85
2018-02-08T02:05:16.320Z,48.70
2018-02-08T02:05:40.069Z,48.92
2018-02-08T02:06:03.528Z,49.80
2018-02-08T02:06:27.307Z,49.65
2018-02-08T02:06:51.059Z,55.22
2018-02-08T02:07:15.111Z,56.25
2018-02-08T02:07:38.858Z,51.67
2018-02-08T02:08:02.325Z,49.75
2018-02-08T02:08:26.094Z,50.55
2018-02-08T02:08:49.845Z,48.33
2018-02-08T02:09:13.637Z,46.88
2018-02-08T02:09:37.664Z,48.42
2018-02-08T02:10:01.697Z,52.78
2018-02-08T02:10:25.566Z,57.42
2018-02-08T02:10:49.620Z,58.15
2018-02-08T02:11:13.365Z,56.08
2018-02-08T02:11:37.418Z,52.55
2018-02-08T02:12:01.173Z,54.60
2018-02-08T02:12:24.765Z,54.22
2018-02-08T02:12:48.563Z,52.10
2018-02-08T02:13:12.529Z,50.65
2018-02-08T02:13:36.344Z,47.42
2018-02-08T02:14:00.151Z,46.83
2018-02-08T02:14:23.969Z,46.92
2018-02-08T02:14:48.024Z,50.05
2018-02-08T02:15:11.811Z,53.05
2018-02-08T02:15:35.833Z,55.58
2018-02-08T02:16:00.031Z,53.85
2018-02-08T02:16:23.779Z,52.50
2018-02-08T02:16:47.535Z,49.97
2018-02-08T02:17:10.994Z,53.97
2018-02-08T02:17:34.794Z,51.30
2018-02-08T02:17:58.540Z,49.78
2018-02-08T02:18:22.304Z,52.30
2018-02-08T02:18:45.817Z,51.78
2018-02-08T02:19:09.362Z,51.28
2018-02-08T02:19:33.207Z,51.92
2018-02-08T02:19:57.285Z,50.40
2018-02-08T02:20:21.132Z,51.45
2018-02-08T02:20:45.150Z,51.28
2018-02-08T02:21:09.121Z,53.25
2018-02-08T02:21:32.909Z,51.72
2018-02-08T02:21:56.946Z,49.50
2018-02-08T02:22:20.700Z,48.15
2018-02-08T02:22:44.149Z,49.83
2018-02-08T02:23:07.952Z,50.35
2018-02-08T02:23:31.749Z,54.20
2018-02-08T02:23:55.520Z,55.58
2018-02-08T02:24:19.587Z,53.28
2018-02-08T02:24:43.072Z,52.03
2018-02-08T02:25:06.872Z,51.60
2018-02-08T02:25:30.607Z,51.13
2018-02-08T02:25:54.559Z,52.25
2018-02-08T02:26:18.313Z,56.70
2018-02-08T02:26:42.164Z,54.03
2018-02-08T02:27:06.251Z,49.35
2018-02-08T02:27:29.877Z,48.65
2018-02-08T02:27:53.654Z,49.90
2018-02-08T02:28:17.396Z,49.78
2018-02-08T02:28:41.205Z,50.20
2018-02-08T02:29:04.485Z,51.40
2018-02-08T02:29:28.281Z,50.58
2018-02-08T02:29:52.077Z,51.03
2018-02-08T02:30:15.836Z,49.95
2018-02-08T02:30:39.685Z,51.40
2018-02-08T02:31:03.481Z,49.92
2018-02-08T02:31:27.524Z,51.10
2018-02-08T02:31:51.598Z,52.70
2018-02-08T02:32:15.364Z,54.65
2018-02-08T02:32:39.384Z,54.38
2018-02-08T02:33:03.174Z,53.05
2018-02-08T02:33:27.184Z,52.58
2018-02-08T02:33:51.273Z,52.42
2018-02-08T02:34:15.034Z,55.00
2018-02-08T02:34:39.071Z,55.10
2018-02-08T02:35:02.565Z,56.77
2018-02-08T02:35:26.389Z,54.42
2018-02-08T02:35:50.211Z,54.35
2018-02-08T02:36:13.972Z,50.05
2018-02-08T02:36:37.793Z,50.30
2018-02-08T02:37:01.256Z,51.03
2018-02-08T02:37:24.997Z,51.83
2018-02-08T02:37:48.815Z,52.47
2018-02-08T02:38:12.584Z,50.25
2018-02-08T02:38:36.344Z,52.85
2018-02-08T02:38:59.807Z,53.25
2018-02-08T02:39:23.593Z,52.40
2018-02-08T02:39:47.381Z,53.25
2018-02-08T02:40:11.153Z,53.10
2018-02-08T02:40:34.655Z,53.45
2018-02-08T02:40:58.410Z,51.13
2018-02-08T02:41:22.145Z,48.83
2018-02-08T02:41:45.920Z,47.60
2018-02-08T02:42:09.954Z,49.30
2018-02-08T02:42:33.910Z,55.70
2018-02-08T02:42:57.947Z,53.15
2018-02-08T02:43:21.816Z,53.20
2018-02-08T02:43:45.292Z,48.70
2018-02-08T02:44:09.049Z,51.03
2018-02-08T02:44:32.856Z,49.15
2018-02-08T02:44:56.674Z,50.33
2018-02-08T02:45:20.473Z,50.47
2018-02-08T02:45:44.551Z,52.13
2018-02-08T02:46:08.383Z,51.03
2018-02-08T02:46:32.443Z,51.10
2018-02-08T02:46:56.248Z,51.25
2018-02-08T02:47:20.323Z,49.53
2018-02-08T02:47:44.070Z,51.85
2018-02-08T02:48:07.514Z,51.92
2018-02-08T02:48:31.323Z,56.95
2018-02-08T02:48:55.161Z,57.25
2018-02-08T02:49:18.973Z,55.25
2018-02-08T02:49:42.740Z,53.00
2018-02-08T02:50:05.885Z,52.35
2018-02-08T02:50:29.663Z,53.85
2018-02-08T02:50:53.727Z,52.75
2018-02-08T02:51:17.200Z,51.17
2018-02-08T02:51:41.012Z,52.15
2018-02-08T02:52:04.759Z,50.95
2018-02-08T02:52:28.508Z,50.65
2018-02-08T02:52:52.406Z,50.42
2018-02-08T02:53:16.434Z,50.05
2018-02-08T02:53:40.282Z,49.17
2018-02-08T02:54:04.334Z,49.53
2018-02-08T02:54:28.069Z,49.58
2018-02-08T02:54:51.566Z,51.97
2018-02-08T02:55:15.328Z,53.97
2018-02-08T02:55:39.114Z,53.15
2018-02-08T02:56:02.886Z,52.72
2018-02-08T02:56:26.945Z,51.03
2018-02-08T02:56:50.713Z,52.38
2018-02-08T02:57:14.169Z,55.40
2018-02-08T02:57:37.920Z,54.97
2018-02-08T02:58:01.728Z,57.15
2018-02-08T02:58:25.544Z,60.85
2018-02-08T02:58:49.616Z,59.70
2018-02-08T02:59:13.388Z,55.22
2018-02-08T02:59:37.425Z,56.45
2018-02-08T03:00:01.530Z,59.10
2018-02-08T03:00:25.397Z,60.45
2018-02-08T03:00:49.189Z,56.30
2018-02-08T03:01:13.225Z,52.30
2018-02-08T03:01:36.684Z,50.97
2018-02-08T03:02:00.560Z,54.33
2018-02-08T03:02:24.465Z,56.35
2018-02-08T03:02:48.327Z,55.38
2018-02-08T03:03:12.115Z,54.83
2018-02-08T03:03:35.871Z,54.15
2018-02-08T03:03:59.981Z,53.78
2018-02-08T03:04:23.732Z,54.70
2018-02-08T03:04:47.752Z,55.53
2018-02-08T03:05:11.510Z,54.25
2018-02-08T03:05:34.996Z,53.65
2018-02-08T03:05:58.793Z,53.05
2018-02-08T03:06:22.625Z,53.38
2018-02-08T03:06:46.405Z,56.17
2018-02-08T03:07:10.524Z,52.85
2018-02-08T03:07:34.298Z,56.58
2018-02-08T03:07:58.116Z,55.47
2018-02-08T03:08:21.654Z,54.10
2018-02-08T03:08:45.412Z,51.95
2018-02-08T03:09:08.857Z,50.47
2018-02-08T03:09:32.608Z,55.08
2018-02-08T03:09:56.364Z,56.37
2018-02-08T03:10:20.112Z,59.58
2018-02-08T03:10:43.896Z,60.55
2018-02-08T03:11:07.744Z,59.03
2018-02-08T03:11:31.774Z,57.65
2018-02-08T03:11:55.549Z,53.10
2018-02-08T03:12:19.413Z,50.88
2018-02-08T03:12:43.268Z,50.30
2018-02-08T03:13:07.032Z,49.53
2018-02-08T03:13:30.792Z,51.05
2018-02-08T03:13:54.591Z,55.50
2018-02-08T03:14:18.408Z,58.15
2018-02-08T03:14:42.204Z,56.42
2018-02-08T03:15:06.317Z,55.15
2018-02-08T03:15:30.065Z,52.75
2018-02-08T03:15:54.097Z,50.92
2018-02-08T03:16:17.949Z,52.80
2018-02-08T03:16:42.002Z,53.95
2018-02-08T03:17:05.751Z,53.17
2018-02-08T03:17:29.854Z,51.50
2018-02-08T03:17:53.653Z,54.20
2018-02-08T03:18:17.110Z,54.15
2018-02-08T03:18:40.861Z,53.72
2018-02-08T03:19:04.606Z,51.83
2018-02-08T03:19:28.088Z,53.30
2018-02-08T03:19:51.841Z,55.70
2018-02-08T03:20:15.651Z,54.58
2018-02-08T03:20:39.389Z,54.72
2018-02-08T03:21:03.216Z,55.55
2018-02-08T03:21:27.296Z,56.85
2018-02-08T03:21:51.053Z,55.22
2018-02-08T03:22:14.551Z,55.47
2018-02-08T03:22:38.348Z,57.55
2018-02-08T03:23:02.172Z,55.12
2018-02-08T03:23:25.919Z,55.22
2018-02-08T03:23:49.473Z,55.97
2018-02-08T03:24:13.220Z,54.58
2018-02-08T03:24:37.012Z,51.83
2018-02-08T03:25:00.790Z,51.67
2018-02-08T03:25:24.550Z,50.30
2018-02-08T03:25:48.574Z,51.28
2018-02-08T03:26:12.357Z,52.55
2018-02-08T03:26:35.879Z,53.80
2018-02-08T03:26:59.624Z,55.45
2018-02-08T03:27:23.371Z,54.95
2018-02-08T03:27:47.132Z,53.87
2018-02-08T03:28:11.230Z,53.28
2018-02-08T03:28:34.975Z,53.85
2018-02-08T03:28:59.150Z,51.92
2018-02-08T03:29:24.017Z,49.35
2018-02-08T03:29:47.831Z,48.45
2018-02-08T03:30:11.733Z,51.58
2018-02-08T03:31:32.436Z,51.27
2018-02-08T03:31:56.323Z,53.28
2018-02-08T03:32:20.363Z,52.50
2018-02-08T03:32:44.402Z,54.63
2018-02-08T03:33:08.222Z,54.42
2018-02-08T03:33:32.389Z,56.80
2018-02-08T03:33:56.200Z,55.05
2018-02-08T03:34:20.006Z,52.45
2018-02-08T03:34:44.077Z,49.05
2018-02-08T03:35:07.836Z,48.15
2018-02-08T03:35:32.015Z,53.03
2018-02-08T03:35:55.777Z,57.10
2018-02-08T03:36:19.639Z,58.72
2018-02-08T03:36:43.680Z,55.83
2018-02-08T03:37:07.490Z,56.85
2018-02-08T03:37:31.659Z,57.00
2018-02-08T03:37:55.434Z,51.92
2018-02-08T03:38:19.474Z,55.90
2018-02-08T03:38:43.232Z,53.75
2018-02-08T03:39:07.393Z,53.72
2018-02-08T03:39:31.197Z,55.83
2018-02-08T03:39:54.808Z,56.40
2018-02-08T03:40:18.281Z,53.40
2018-02-08T03:40:42.054Z,54.13
2018-02-08T03:41:05.890Z,54.00
2018-02-08T03:41:29.953Z,56.13
2018-02-08T03:41:53.775Z,55.97
2018-02-08T03:42:17.833Z,56.53
2018-02-08T03:42:41.592Z,54.72
2018-02-08T03:43:05.571Z,54.72
2018-02-08T03:43:29.029Z,51.43
2018-02-08T03:43:52.863Z,55.10
2018-02-08T03:44:16.601Z,55.88
2018-02-08T03:44:40.357Z,56.83
2018-02-08T03:45:03.749Z,54.08
2018-02-08T03:45:27.549Z,56.45
2018-02-08T03:45:51.281Z,56.35
2018-02-08T03:46:15.036Z,57.08
2018-02-08T03:46:39.191Z,55.45
2018-02-08T03:47:02.960Z,55.50
2018-02-08T03:47:27.043Z,54.30
2018-02-08T03:47:50.863Z,50.05
2018-02-08T03:48:14.677Z,50.45
2018-02-08T03:48:38.730Z,51.75
2018-02-08T03:49:02.487Z,53.60
2018-02-08T03:49:26.050Z,53.85
2018-02-08T03:49:49.801Z,54.00
2018-02-08T03:50:13.602Z,54.63
2018-02-08T03:50:37.372Z,56.50
2018-02-08T03:51:01.491Z,53.87
2018-02-08T03:51:25.263Z,56.97
2018-02-08T03:51:48.737Z,54.90
2018-02-08T03:52:12.594Z,53.42
2018-02-08T03:52:36.403Z,54.58
2018-02-08T03:53:00.160Z,57.22
2018-02-08T03:53:23.915Z,56.67
2018-02-08T03:53:48.184Z,57.15
2018-02-08T03:54:11.950Z,55.17
2018-02-08T03:54:35.728Z,54.83
2018-02-08T03:54:59.233Z,56.70
2018-02-08T03:55:23.067Z,55.22
2018-02-08T03:55:46.828Z,56.47
2018-02-08T03:56:10.580Z,58.33
2018-02-08T03:56:34.353Z,57.38
2018-02-08T03:56:58.445Z,56.03
2018-02-08T03:57:22.300Z,53.83
2018-02-08T03:57:46.235Z,50.85
2018-02-08T03:58:10.075Z,50.50
2018-02-08T03:58:34.129Z,49.92
2018-02-08T03:58:57.923Z,52.13
2018-02-08T03:59:21.482Z,52.20
2018-02-08T03:59:45.328Z,55.95
2018-02-08T04:00:09.108Z,55.05
2018-02-08T04:00:32.933Z,55.55
2018-02-08T04:00:56.745Z,56.97
2018-02-08T04:01:20.508Z,57.85
2018-02-08T04:01:44.550Z,55.40
2018-02-08T04:02:08.766Z,52.65
2018-02-08T04:02:32.644Z,55.75
2018-02-08T04:02:56.469Z,54.50
2018-02-08T04:03:20.211Z,52.17
2018-02-08T04:03:44.376Z,51.13
2018-02-08T04:04:08.188Z,59.22
2018-02-08T04:04:31.729Z,60.23
2018-02-08T04:04:55.296Z,59.55
2018-02-08T04:05:19.074Z,53.17
2018-02-08T04:05:42.882Z,57.58
2018-02-08T04:06:06.968Z,56.25
2018-02-08T04:06:30.742Z,54.97
2018-02-08T04:06:54.780Z,52.17
2018-02-08T04:07:18.556Z,53.67
2018-02-08T04:07:42.644Z,55.33
2018-02-08T04:08:06.446Z,56.65
2018-02-08T04:08:30.165Z,54.28
2018-02-08T04:08:53.975Z,54.80
2018-02-08T04:09:17.790Z,56.90
2018-02-08T04:09:41.556Z,55.78
2018-02-08T04:10:05.306Z,52.33
2018-02-08T04:10:29.077Z,54.10
2018-02-08T04:10:53.117Z,55.30
2018-02-08T04:11:16.902Z,51.88
2018-02-08T04:11:40.942Z,52.97
2018-02-08T04:12:04.704Z,54.72
2018-02-08T04:12:28.268Z,54.40
2018-02-08T04:12:52.018Z,50.88
2018-02-08T04:13:15.796Z,50.70
2018-02-08T04:13:39.589Z,53.97
2018-02-08T04:14:03.356Z,56.75
2018-02-08T04:14:27.398Z,55.90
2018-02-08T04:14:51.486Z,53.92
2018-02-08T04:15:15.268Z,54.63
2018-02-08T04:15:39.321Z,53.72
2018-02-08T04:16:03.088Z,54.95
2018-02-08T04:16:27.129Z,53.33
2018-02-08T04:16:50.937Z,53.28
2018-02-08T04:17:14.973Z,52.08
2018-02-08T04:17:38.723Z,50.38
2018-02-08T04:18:02.259Z,53.20
2018-02-08T04:18:26.045Z,56.03
2018-02-08T04:18:49.804Z,59.40
2018-02-08T04:19:13.568Z,56.58
2018-02-08T04:19:37.603Z,53.65
2018-02-08T04:20:01.358Z,51.53
2018-02-08T04:20:25.410Z,53.22
2018-02-08T04:20:49.195Z,53.25
2018-02-08T04:21:13.227Z,54.05
2018-02-08T04:21:37.277Z,56.17
2018-02-08T04:22:01.066Z,52.53
2018-02-08T04:22:25.112Z,52.20
2018-02-08T04:22:48.954Z,51.50
2018-02-08T04:23:12.412Z,54.57
2018-02-08T04:23:36.188Z,56.17
2018-02-08T04:23:59.995Z,55.55
2018-02-08T04:24:23.785Z,55.15
2018-02-08T04:24:47.554Z,56.67
2018-02-08T04:25:11.652Z,59.35
2018-02-08T04:25:35.445Z,58.95
2018-02-08T04:25:59.465Z,57.13
2018-02-08T04:26:23.230Z,55.67
2018-02-08T04:26:47.269Z,55.92
2018-02-08T04:27:10.740Z,54.37
2018-02-08T04:27:34.545Z,55.85
2018-02-08T04:27:58.476Z,57.13
2018-02-08T04:28:22.331Z,54.72
2018-02-08T04:28:46.118Z,51.40
2018-02-08T04:29:09.924Z,52.50
2018-02-08T04:29:33.715Z,53.87
2018-02-08T04:29:57.742Z,58.47
2018-02-08T04:30:21.545Z,56.30
2018-02-08T04:30:45.643Z,56.30
2018-02-08T04:31:09.410Z,53.30
2018-02-08T04:31:33.404Z,52.92
2018-02-08T04:31:57.506Z,52.58
2018-02-08T04:32:21.303Z,54.03
2018-02-08T04:32:44.764Z,56.63
2018-02-08T04:33:08.514Z,56.22
2018-02-08T04:33:32.323Z,55.55
2018-02-08T04:33:56.103Z,54.22
2018-02-08T04:34:19.901Z,56.20
2018-02-08T04:34:43.958Z,57.62
2018-02-08T04:35:07.737Z,58.53
2018-02-08T04:35:31.809Z,57.15
2018-02-08T04:35:55.614Z,56.25
2018-02-08T04:36:19.674Z,56.20
2018-02-08T04:36:43.473Z,55.67
2018-02-08T04:37:07.513Z,55.72
2018-02-08T04:37:31.305Z,58.92
2018-02-08T04:37:54.785Z,59.92
2018-02-08T04:38:18.058Z,61.05
2018-02-08T04:38:52.861Z,62.45
2018-02-08T04:39:27.757Z,59.00
2018-02-08T04:40:02.784Z,54.60
2018-02-08T04:40:37.329Z,55.03
2018-02-08T04:41:12.288Z,54.15
2018-02-08T04:41:47.204Z,55.17
2018-02-08T04:42:22.006Z,59.75
2018-02-08T04:42:56.995Z,60.53
2018-02-08T04:43:31.719Z,53.55
2018-02-08T04:45:06.397Z,58.15
2018-02-08T04:45:41.556Z,57.40
2018-02-08T04:46:16.450Z,56.55
2018-02-08T04:46:51.313Z,53.87
2018-02-08T04:47:26.968Z,57.67
2018-02-08T04:48:07.527Z,58.55
2018-02-08T04:48:31.012Z,58.55
2018-02-08T04:48:54.766Z,59.30
2018-02-08T04:49:18.528Z,56.70
2018-02-08T04:49:42.308Z,55.28
2018-02-08T04:50:06.368Z,53.45
2018-02-08T04:50:30.154Z,54.20
2018-02-08T04:50:54.188Z,53.20
2018-02-08T04:51:17.934Z,51.78
2018-02-08T04:51:41.444Z,56.75
2018-02-08T04:52:05.293Z,61.28
2018-02-08T04:52:29.048Z,58.33
2018-02-08T04:52:52.797Z,53.60
2018-02-08T04:53:16.257Z,54.60
2018-02-08T04:53:40.069Z,52.83
2018-02-08T04:54:03.561Z,55.53
2018-02-08T04:54:27.620Z,58.15
2018-02-08T04:54:51.374Z,57.47
2018-02-08T04:55:15.550Z,54.30
2018-02-08T04:55:39.304Z,52.17
2018-02-08T04:56:03.342Z,51.40
2018-02-08T04:56:27.218Z,51.15
2018-02-08T04:56:51.045Z,53.42
2018-02-08T04:57:15.120Z,55.53
2018-02-08T04:57:38.892Z,58.55
2018-02-08T04:58:02.919Z,57.10
2018-02-08T04:58:26.777Z,57.13
2018-02-08T04:58:50.840Z,58.00
2018-02-08T04:59:14.638Z,55.20
2018-02-08T04:59:38.715Z,55.30
2018-02-08T05:00:02.514Z,54.15
2018-02-08T05:00:26.600Z,56.67
2018-02-08T05:00:50.381Z,55.50
2018-02-08T05:01:14.407Z,57.40
2018-02-08T05:01:37.987Z,56.30
2018-02-08T05:02:02.338Z,56.03
2018-02-08T05:02:26.033Z,56.13
2018-02-08T05:02:50.741Z,58.72
2018-02-08T05:03:14.503Z,63.70
2018-02-08T05:03:38.382Z,62.85
2018-02-08T05:04:02.152Z,60.20
2018-02-08T05:04:26.003Z,56.92
2018-02-08T05:04:49.761Z,56.35
2018-02-08T05:05:13.565Z,56.67
2018-02-08T05:05:37.661Z,58.28
2018-02-08T05:06:01.449Z,58.53
2018-02-08T05:06:25.565Z,57.05
2018-02-08T05:06:49.353Z,59.40
2018-02-08T05:07:13.120Z,64.12
2018-02-08T05:07:36.610Z,63.20
2018-02-08T05:08:00.376Z,59.65
2018-02-08T05:08:24.130Z,59.45
2018-02-08T05:08:47.927Z,60.30
2018-02-08T05:09:11.970Z,60.67
2018-02-08T05:09:35.809Z,57.65
2018-02-08T05:09:59.852Z,60.22
2018-02-08T05:10:23.626Z,59.25
2018-02-08T05:10:47.704Z,59.60
2018-02-08T05:11:11.520Z,54.40
2018-02-08T05:11:35.582Z,56.17
2018-02-08T05:11:59.340Z,56.37